Time;durP1;ratioP1;P1;durP2;ratioP2;P2;SDS_P1;SDS_P2;PMS_P1;PMS_P2;Temp;Humidity;BMP_temperature;BMP_pressure;BME280_temperature;BME280_humidity;BME280_pressure;Samples;Min_cycle;Max_cycle;Signal;HPM_P1;HPM_P2
2022/06/09 00:00:50;;;;;;;3.53;0.38;;;16.10;99.90;;;;;;5032146;28;20098;-74
2022/06/09 00:03:26;;;;;;;1.08;0.40;;;15.80;99.90;;;;;;5027038;28;20437;-74
2022/06/09 00:05:52;;;;;;;1.13;0.40;;;15.70;99.90;;;;;;5023865;28;20132;-74
2022/06/09 00:08:19;;;;;;;1.83;0.45;;;15.70;99.90;;;;;;5024941;28;20175;-74
2022/06/09 00:10:55;;;;;;;0.82;0.30;;;15.60;99.90;;;;;;5033001;28;20498;-74
2022/06/09 00:13:21;;;;;;;3.20;0.30;;;15.60;99.90;;;;;;5031219;28;20484;-75
2022/06/09 00:15:47;;;;;;;0.55;0.30;;;15.60;99.90;;;;;;5025291;28;20033;-74
2022/06/09 00:18:13;;;;;;;0.43;0.20;;;15.80;99.90;;;;;;5028571;28;20022;-74
2022/06/09 00:20:38;;;;;;;2.13;0.55;;;15.80;99.90;;;;;;5032392;28;20064;-74
2022/06/09 00:23:04;;;;;;;1.50;0.20;;;15.80;99.90;;;;;;5026925;28;20388;-74
2022/06/09 00:25:30;;;;;;;1.00;0.40;;;15.70;99.90;;;;;;5032886;28;20026;-74
2022/06/09 00:27:56;;;;;;;2.35;0.40;;;15.60;99.90;;;;;;5024500;28;20034;-74
2022/06/09 00:30:21;;;;;;;0.75;0.25;;;15.50;99.90;;;;;;5028992;28;20120;-74
2022/06/09 00:32:47;;;;;;;1.17;0.30;;;15.40;99.90;;;;;;5022380;28;20034;-74
2022/06/09 00:35:13;;;;;;;0.80;0.30;;;15.50;99.90;;;;;;5021858;28;20399;-74
2022/06/09 00:37:39;;;;;;;1.42;0.30;;;15.40;99.90;;;;;;5026533;28;20033;-74
2022/06/09 00:40:07;;;;;;;1.95;0.40;;;15.40;99.90;;;;;;5030144;28;20029;-73
2022/06/09 00:42:35;;;;;;;0.80;0.10;;;15.40;99.90;;;;;;5032224;28;20087;-74
2022/06/09 00:45:25;;;;;;;0.22;0.10;;;15.40;99.90;;;;;;5030966;28;20369;-74
2022/06/09 00:47:53;;;;;;;1.83;0.30;;;15.40;99.90;;;;;;5032507;28;20045;-74
2022/06/09 00:50:21;;;;;;;1.15;0.20;;;15.40;99.90;;;;;;5023857;28;20033;-73
2022/06/09 00:52:51;;;;;;;0.50;0.20;;;15.40;99.90;;;;;;5030908;28;20029;-74
2022/06/09 00:55:21;;;;;;;3.00;0.35;;;15.40;99.90;;;;;;5026024;28;20403;-74
2022/06/09 00:57:58;;;;;;;0.52;0.22;;;15.40;99.90;;;;;;5028204;28;20030;-74
2022/06/09 01:00:29;;;;;;;1.60;0.30;;;15.30;99.90;;;;;;5029878;28;20029;-74
2022/06/09 01:02:58;;;;;;;0.70;0.22;;;15.40;99.90;;;;;;5030728;28;20033;-74
2022/06/09 01:05:26;;;;;;;0.40;0.20;;;15.40;99.90;;;;;;5029640;28;20033;-74
2022/06/09 01:07:54;;;;;;;1.42;0.20;;;15.30;99.90;;;;;;5022558;28;20484;-74
2022/06/09 01:10:20;;;;;;;2.83;0.20;;;15.20;99.90;;;;;;5028534;28;20541;-74
2022/06/09 01:12:48;;;;;;;0.73;0.20;;;15.30;99.90;;;;;;5029047;28;20037;-73
2022/06/09 01:15:20;;;;;;;0.50;0.15;;;15.40;99.90;;;;;;5030533;28;20033;-74
2022/06/09 01:17:59;;;;;;;0.50;0.20;;;15.50;99.90;;;;;;5027933;28;20139;-74
2022/06/09 01:20:36;;;;;;;0.75;0.17;;;15.50;99.90;;;;;;5019497;28;20060;-74
2022/06/09 01:23:14;;;;;;;0.80;0.10;;;15.50;99.90;;;;;;5027415;28;20026;-74
2022/06/09 01:25:42;;;;;;;0.40;0.10;;;15.20;99.90;;;;;;5031857;28;20044;-74
2022/06/09 01:28:17;;;;;;;0.55;0.15;;;15.10;99.90;;;;;;5027696;28;20034;-74
2022/06/09 01:30:49;;;;;;;0.32;0.20;;;15.10;99.90;;;;;;5031294;28;20092;-73
2022/06/09 01:33:26;;;;;;;0.85;0.45;;;15.10;99.90;;;;;;5028393;28;20017;-73
2022/06/09 01:36:05;;;;;;;0.25;0.08;;;15.10;99.90;;;;;;5023339;28;20479;-74
2022/06/09 01:38:47;;;;;;;0.80;0.20;;;14.90;99.90;;;;;;5027023;28;20077;-73
2022/06/09 01:41:14;;;;;;;2.03;0.30;;;15.00;99.90;;;;;;5023340;28;20092;-74
2022/06/09 01:43:40;;;;;;;0.68;0.17;;;15.00;99.90;;;;;;5026603;28;20069;-74
2022/06/09 01:46:33;;;;;;;2.35;0.40;;;14.70;99.90;;;;;;5026014;28;20034;-74
2022/06/09 01:49:12;;;;;;;1.85;0.20;;;14.70;99.90;;;;;;5025387;28;20046;-74
2022/06/09 01:51:42;;;;;;;2.47;0.30;;;14.70;99.90;;;;;;5025396;28;20041;-74
2022/06/09 01:54:20;;;;;;;0.50;0.20;;;14.50;99.90;;;;;;5031806;28;20029;-74
2022/06/09 01:57:01;;;;;;;0.40;0.10;;;14.70;99.90;;;;;;5028483;28;20037;-73
2022/06/09 01:59:38;;;;;;;1.58;0.30;;;14.80;99.90;;;;;;5022244;28;20033;-74
2022/06/09 02:02:12;;;;;;;1.33;0.10;;;14.90;99.90;;;;;;5024667;28;20029;-74
2022/06/09 02:04:44;;;;;;;3.00;0.20;;;14.70;99.90;;;;;;5026592;28;20033;-74
2022/06/09 02:07:12;;;;;;;0.20;0.03;;;14.50;99.90;;;;;;5029344;28;20393;-74
2022/06/09 02:09:38;;;;;;;0.98;0.30;;;14.30;99.90;;;;;;5023121;28;20038;-74
2022/06/09 02:12:10;;;;;;;1.10;0.15;;;14.40;99.90;;;;;;5029419;28;20026;-74
2022/06/09 02:14:38;;;;;;;0.08;0.03;;;14.50;99.90;;;;;;5023016;28;20396;-74
2022/06/09 02:17:06;;;;;;;2.97;0.25;;;14.50;99.90;;;;;;5024931;28;20079;-73
2022/06/09 02:19:33;;;;;;;1.90;0.10;;;14.50;99.90;;;;;;5025861;28;20649;-73
2022/06/09 02:21:59;;;;;;;0.35;0.10;;;14.20;99.90;;;;;;5028614;28;20468;-73
2022/06/09 02:24:25;;;;;;;0.85;0.15;;;14.00;99.90;;;;;;5029804;28;20040;-73
2022/06/09 02:26:50;;;;;;;0.50;0.10;;;13.80;99.90;;;;;;5029596;28;20499;-73
2022/06/09 02:29:16;;;;;;;1.35;0.10;;;13.90;99.90;;;;;;5025858;28;20072;-74
2022/06/09 02:31:42;;;;;;;0.00;0.00;;;13.90;99.90;;;;;;5023474;28;20486;-74
2022/06/09 02:34:09;;;;;;;0.52;0.13;;;13.80;99.90;;;;;;5019658;28;20506;-74
2022/06/09 02:36:35;;;;;;;0.55;0.10;;;13.80;99.90;;;;;;5024560;28;20072;-73
2022/06/09 02:39:01;;;;;;;1.02;0.10;;;13.70;99.90;;;;;;5031421;28;20396;-74
2022/06/09 02:41:27;;;;;;;0.80;0.10;;;13.80;99.90;;;;;;5030236;28;20792;-73
2022/06/09 02:43:53;;;;;;;1.85;0.32;;;13.60;99.90;;;;;;5031635;28;20038;-73
2022/06/09 02:46:18;;;;;;;1.17;0.40;;;13.50;99.90;;;;;;5021636;28;20046;-73
2022/06/09 02:48:44;;;;;;;0.50;0.08;;;13.60;99.90;;;;;;5031359;28;20108;-73
2022/06/09 02:51:27;;;;;;;0.85;0.10;;;13.60;99.90;;;;;;5033581;28;20423;-74
2022/06/09 02:53:57;;;;;;;0.85;0.28;;;13.60;99.90;;;;;;5032551;28;20108;-73
2022/06/09 02:56:23;;;;;;;1.67;0.20;;;13.50;99.90;;;;;;5032645;28;20106;-74
2022/06/09 02:58:49;;;;;;;0.13;0.08;;;13.60;99.90;;;;;;5034595;28;20030;-73
2022/06/09 03:01:14;;;;;;;0.40;0.28;;;13.30;99.90;;;;;;5027657;28;20026;-74
2022/06/09 03:03:40;;;;;;;1.10;0.30;;;13.30;99.90;;;;;;5027347;28;20053;-74
2022/06/09 03:06:06;;;;;;;0.22;0.13;;;13.30;99.90;;;;;;5024777;28;20124;-74
2022/06/09 03:08:32;;;;;;;0.47;0.20;;;13.60;99.90;;;;;;5028082;28;20030;-74
2022/06/09 03:10:58;;;;;;;0.17;0.17;;;13.60;99.90;;;;;;5028042;28;20032;-74
2022/06/09 03:13:24;;;;;;;1.02;0.40;;;13.50;99.90;;;;;;5027418;28;20033;-74
2022/06/09 03:15:50;;;;;;;2.10;0.10;;;13.30;99.90;;;;;;5023794;28;21255;-74
2022/06/09 03:18:17;;;;;;;1.35;0.22;;;13.40;99.90;;;;;;5019424;28;20544;-74
2022/06/09 03:20:44;;;;;;;2.00;0.20;;;13.20;99.90;;;;;;5024039;28;20041;-74
2022/06/09 03:23:10;;;;;;;1.55;0.10;;;13.10;99.90;;;;;;5018602;28;20033;-74
2022/06/09 03:25:36;;;;;;;0.47;0.17;;;13.30;99.90;;;;;;5029355;28;20030;-74
2022/06/09 03:28:03;;;;;;;0.98;0.17;;;13.70;99.90;;;;;;5029283;28;20039;-74
2022/06/09 03:30:29;;;;;;;0.55;0.35;;;13.60;99.90;;;;;;5023860;28;20526;-74
2022/06/09 03:32:54;;;;;;;0.70;0.20;;;13.70;99.90;;;;;;5029231;28;20030;-74
2022/06/09 03:35:20;;;;;;;0.73;0.17;;;13.60;99.90;;;;;;5025923;28;20030;-74
2022/06/09 03:37:46;;;;;;;2.33;0.25;;;13.50;99.90;;;;;;5026974;28;20021;-74
2022/06/09 03:40:14;;;;;;;0.50;0.20;;;13.40;99.90;;;;;;5023209;28;20061;-74
2022/06/09 03:42:40;;;;;;;0.47;0.08;;;13.40;99.90;;;;;;5024697;28;20438;-74
2022/06/09 03:45:07;;;;;;;1.60;0.30;;;13.30;99.90;;;;;;5028578;28;20680;-74
2022/06/09 03:47:32;;;;;;;0.38;0.13;;;13.30;99.90;;;;;;5021734;28;20046;-74
2022/06/09 03:49:58;;;;;;;0.60;0.20;;;13.10;99.90;;;;;;5024273;28;20040;-74
2022/06/09 03:52:24;;;;;;;0.50;0.17;;;12.90;99.90;;;;;;5027435;28;20040;-74
2022/06/09 03:54:49;;;;;;;2.20;0.22;;;12.90;99.90;;;;;;5026352;28;20040;-73
2022/06/09 03:57:15;;;;;;;1.08;0.40;;;12.80;99.90;;;;;;5022922;28;20029;-73
2022/06/09 03:59:41;;;;;;;1.20;0.15;;;13.00;99.90;;;;;;5023561;28;20029;-74
2022/06/09 04:02:07;;;;;;;0.80;0.40;;;13.40;99.90;;;;;;5019637;28;20079;-74
2022/06/09 04:04:32;;;;;;;0.52;0.13;;;13.40;99.90;;;;;;5026169;28;20043;-74
2022/06/09 04:06:58;;;;;;;3.08;0.70;;;13.50;99.90;;;;;;5022249;28;20082;-73
2022/06/09 04:09:24;;;;;;;0.80;0.20;;;13.60;99.90;;;;;;5024100;28;20095;-74
2022/06/09 04:11:50;;;;;;;1.40;0.22;;;13.40;99.90;;;;;;5021514;28;20492;-74
2022/06/09 04:14:15;;;;;;;0.88;0.13;;;13.50;99.90;;;;;;5020912;28;20482;-74
2022/06/09 04:16:44;;;;;;;0.70;0.17;;;13.60;99.90;;;;;;5019279;28;20030;-74
2022/06/09 04:19:13;;;;;;;0.68;0.15;;;13.60;99.90;;;;;;5021234;28;20026;-74
2022/06/09 04:21:39;;;;;;;0.35;0.20;;;13.80;99.90;;;;;;5021120;28;20403;-74
2022/06/09 04:24:06;;;;;;;0.93;0.15;;;13.90;99.90;;;;;;5014324;28;20032;-74
2022/06/09 04:26:35;;;;;;;1.65;0.40;;;13.90;99.90;;;;;;5014804;28;20041;-74
2022/06/09 04:29:01;;;;;;;4.18;0.20;;;14.10;99.90;;;;;;5024306;28;20033;-73
2022/06/09 04:31:27;;;;;;;0.88;0.32;;;14.30;99.90;;;;;;5018122;28;20065;-74
2022/06/09 04:33:53;;;;;;;1.27;0.30;;;14.10;99.90;;;;;;5019314;28;20069;-74
2022/06/09 04:36:20;;;;;;;0.85;0.30;;;14.10;99.90;;;;;;5025029;28;20036;-74
2022/06/09 04:38:46;;;;;;;1.02;0.20;;;14.30;99.90;;;;;;5021962;28;20055;-74
2022/06/09 04:41:14;;;;;;;0.63;0.20;;;14.30;99.90;;;;;;5019122;28;20091;-74
2022/06/09 04:43:43;;;;;;;1.13;0.30;;;14.10;99.90;;;;;;5022187;28;20044;-74
2022/06/09 04:46:11;;;;;;;3.83;0.30;;;13.90;99.90;;;;;;5017156;28;20045;-74
2022/06/09 04:48:37;;;;;;;0.90;0.17;;;13.90;99.90;;;;;;5014946;28;20056;-74
2022/06/09 04:51:07;;;;;;;0.70;0.20;;;14.10;99.90;;;;;;5007638;28;20042;-74
2022/06/09 04:53:33;;;;;;;0.20;0.10;;;14.10;99.90;;;;;;5013291;28;20033;-74
2022/06/09 04:55:59;;;;;;;1.38;0.30;;;14.40;99.90;;;;;;5024880;28;20044;-74
2022/06/09 04:58:26;;;;;;;0.73;0.20;;;14.20;99.90;;;;;;5017017;28;20021;-74
2022/06/09 05:00:52;;;;;;;4.47;0.40;;;14.30;99.90;;;;;;5015885;28;20033;-74
2022/06/09 05:03:19;;;;;;;0.57;0.32;;;14.20;99.90;;;;;;5012040;28;20089;-73
2022/06/09 05:05:46;;;;;;;0.35;0.28;;;14.40;99.90;;;;;;5018868;28;20025;-74
2022/06/09 05:08:13;;;;;;;1.17;0.50;;;14.40;99.90;;;;;;5016077;28;20031;-73
2022/06/09 05:10:41;;;;;;;1.63;0.73;;;14.40;99.90;;;;;;5016660;28;20032;-74
2022/06/09 05:13:07;;;;;;;0.65;0.30;;;14.20;99.90;;;;;;5012932;28;20037;-74
2022/06/09 05:15:36;;;;;;;0.98;0.30;;;13.90;99.90;;;;;;5013814;28;20442;-74
2022/06/09 05:18:03;;;;;;;1.13;0.30;;;14.00;99.90;;;;;;5011209;28;20030;-74
2022/06/09 05:20:30;;;;;;;0.77;0.35;;;13.80;99.90;;;;;;5007555;28;20034;-74
2022/06/09 05:22:56;;;;;;;0.75;0.20;;;14.00;99.90;;;;;;5015828;28;20034;-74
2022/06/09 05:25:22;;;;;;;0.82;0.30;;;13.90;99.90;;;;;;5012137;28;20037;-74
2022/06/09 05:27:48;;;;;;;1.05;0.40;;;14.00;99.90;;;;;;5012730;28;20160;-73
2022/06/09 05:30:20;;;;;;;2.75;0.28;;;14.00;99.90;;;;;;5019898;28;20081;-74
2022/06/09 05:32:46;;;;;;;1.20;0.40;;;13.90;99.90;;;;;;5018684;28;20048;-73
2022/06/09 05:35:12;;;;;;;1.35;0.38;;;13.90;99.90;;;;;;5014009;28;20061;-74
2022/06/09 05:45:54;;;;;;;0.60;0.13;;;13.70;99.90;;;;;;5006688;28;19983;-74
2022/06/09 05:48:21;;;;;;;3.00;0.47;;;13.80;99.90;;;;;;5012686;28;20447;-74
2022/06/09 05:50:47;;;;;;;5.63;0.40;;;13.90;99.90;;;;;;5010495;28;20527;-75
2022/06/09 05:53:13;;;;;;;1.65;0.30;;;14.30;99.90;;;;;;5010109;28;20101;-74
2022/06/09 05:55:38;;;;;;;1.38;0.32;;;14.40;99.90;;;;;;5016165;28;20538;-75
2022/06/09 05:58:04;;;;;;;1.15;0.22;;;14.50;99.90;;;;;;5017562;28;20035;-74
2022/06/09 06:00:30;;;;;;;0.85;0.38;;;14.60;99.90;;;;;;5022369;28;20033;-74
2022/06/09 06:02:57;;;;;;;0.43;0.22;;;14.70;99.90;;;;;;5022547;28;20040;-75
2022/06/09 06:08:08;;;;;;;2.40;0.40;;;14.40;99.90;;;;;;5023613;28;20513;-75
2022/06/09 06:10:34;;;;;;;1.20;0.40;;;14.60;99.90;;;;;;5023171;28;20136;-74
2022/06/09 06:13:00;;;;;;;1.85;0.40;;;14.50;99.90;;;;;;5020044;28;20029;-75
2022/06/09 06:15:25;;;;;;;0.45;0.20;;;14.70;99.90;;;;;;5024272;28;20454;-74
2022/06/09 06:17:54;;;;;;;0.65;0.32;;;14.80;99.90;;;;;;5027989;28;20029;-75
2022/06/09 06:20:21;;;;;;;1.55;0.50;;;15.10;99.90;;;;;;5026816;28;20066;-75
2022/06/09 06:22:46;;;;;;;0.90;0.30;;;15.00;99.90;;;;;;5027923;28;20975;-75
2022/06/09 06:25:12;;;;;;;1.25;0.40;;;15.30;99.90;;;;;;5026883;28;20041;-75
2022/06/09 06:27:38;;;;;;;0.50;0.20;;;15.40;99.90;;;;;;5025961;28;20099;-75
2022/06/09 06:30:04;;;;;;;0.80;0.43;;;15.20;99.90;;;;;;5018880;28;20075;-75
2022/06/09 06:32:30;;;;;;;1.52;0.50;;;15.50;99.90;;;;;;5025564;28;20046;-75
2022/06/09 06:34:56;;;;;;;1.63;0.50;;;15.80;99.90;;;;;;5027134;28;20529;-75
2022/06/09 06:37:21;;;;;;;1.35;0.28;;;15.80;99.90;;;;;;5028248;28;20034;-75
2022/06/09 06:39:47;;;;;;;0.80;0.30;;;15.70;99.90;;;;;;5027010;28;20080;-75
2022/06/09 06:42:12;;;;;;;1.83;0.50;;;15.90;99.90;;;;;;5027626;28;20040;-75
2022/06/09 06:44:38;;;;;;;2.75;0.55;;;16.10;99.90;;;;;;5026155;28;20343;-75
2022/06/09 06:47:04;;;;;;;0.73;0.30;;;16.10;99.90;;;;;;5020703;28;20246;-76
2022/06/09 06:49:29;;;;;;;2.88;0.35;;;16.20;99.90;;;;;;5021853;28;20124;-74
2022/06/09 06:51:55;;;;;;;2.33;0.25;;;16.30;99.90;;;;;;5025189;28;20041;-74
2022/06/09 06:54:21;;;;;;;3.90;0.60;;;16.40;99.90;;;;;;5025714;28;20021;-74
2022/06/09 06:56:46;;;;;;;3.53;0.40;;;16.40;99.90;;;;;;5026324;28;20036;-74
2022/06/09 06:59:12;;;;;;;0.47;0.28;;;16.40;99.90;;;;;;5021501;28;20057;-74
2022/06/09 07:01:37;;;;;;;0.43;0.13;;;16.30;99.90;;;;;;5025733;28;20060;-74
2022/06/09 07:04:03;;;;;;;1.58;0.40;;;16.20;99.90;;;;;;5021851;28;20037;-74
2022/06/09 07:06:29;;;;;;;3.13;0.47;;;16.40;99.90;;;;;;5026435;28;20033;-74
2022/06/09 07:08:55;;;;;;;0.55;0.20;;;16.50;99.90;;;;;;5024031;28;20038;-74
2022/06/09 07:11:20;;;;;;;2.63;0.45;;;16.80;99.90;;;;;;5025763;28;20047;-74
2022/06/09 07:13:46;;;;;;;0.85;0.40;;;17.00;99.90;;;;;;5025890;28;20079;-74
2022/06/09 07:16:13;;;;;;;0.65;0.13;;;16.90;99.90;;;;;;5026505;28;20033;-74
2022/06/09 07:18:39;;;;;;;0.60;0.28;;;16.50;99.90;;;;;;5026584;28;20034;-74
2022/06/09 07:21:06;;;;;;;2.33;0.40;;;16.50;99.90;;;;;;5024114;28;20104;-74
2022/06/09 07:23:32;;;;;;;4.43;0.60;;;16.40;99.90;;;;;;5025834;28;20037;-74
2022/06/09 07:25:58;;;;;;;2.58;0.38;;;16.40;99.90;;;;;;5025926;28;20038;-74
2022/06/09 07:28:25;;;;;;;0.90;0.43;;;16.40;99.90;;;;;;5025113;28;20053;-74
2022/06/09 07:30:56;;;;;;;0.93;0.30;;;16.30;99.90;;;;;;5025309;28;20067;-74
2022/06/09 07:33:23;;;;;;;1.08;0.40;;;16.30;99.90;;;;;;5025240;28;20025;-74
2022/06/09 07:35:51;;;;;;;0.85;0.25;;;16.40;99.90;;;;;;5025940;28;20041;-74
2022/06/09 07:38:18;;;;;;;0.38;0.20;;;18.70;99.90;;;;;;5021790;28;20104;-74
2022/06/09 07:40:44;;;;;;;0.28;0.20;;;20.40;98.90;;;;;;5017516;28;20099;-74
2022/06/09 07:43:11;;;;;;;3.35;0.35;;;18.80;98.90;;;;;;5025818;28;20061;-74
2022/06/09 07:45:38;;;;;;;1.38;0.52;;;18.30;99.90;;;;;;5025261;28;20528;-74
2022/06/09 07:48:04;;;;;;;1.35;0.73;;;18.00;99.90;;;;;;5025263;28;20533;-74
2022/06/09 07:50:32;;;;;;;2.58;0.52;;;17.90;99.90;;;;;;5024972;28;20083;-75
2022/06/09 07:52:58;;;;;;;2.30;0.50;;;17.70;99.90;;;;;;5025857;28;20037;-74
2022/06/09 07:55:24;;;;;;;1.60;0.40;;;17.40;99.90;;;;;;5016441;28;20083;-74
2022/06/09 07:57:51;;;;;;;2.08;0.20;;;17.40;99.90;;;;;;5025431;28;20037;-74
2022/06/09 08:00:18;;;;;;;2.15;0.57;;;17.40;99.90;;;;;;5023269;28;20041;-74
2022/06/09 08:02:44;;;;;;;2.05;0.60;;;17.30;99.90;;;;;;5026070;28;20520;-74
2022/06/09 08:05:11;;;;;;;1.05;0.30;;;17.20;99.90;;;;;;5023369;28;20100;-74
2022/06/09 08:07:37;;;;;;;1.15;0.52;;;17.20;99.90;;;;;;5024972;28;20108;-74
2022/06/09 08:10:05;;;;;;;1.65;0.50;;;17.10;99.90;;;;;;5024538;28;20033;-74
2022/06/09 08:12:31;;;;;;;1.88;0.60;;;17.00;99.90;;;;;;5018849;28;20033;-75
2022/06/09 08:14:56;;;;;;;3.08;0.90;;;17.00;99.90;;;;;;5024779;28;20021;-74
2022/06/09 08:17:22;;;;;;;2.75;0.80;;;17.00;99.90;;;;;;5022238;28;20087;-75
2022/06/09 08:19:48;;;;;;;1.58;0.57;;;17.00;99.90;;;;;;5021002;28;20040;-74
2022/06/09 08:22:15;;;;;;;1.25;0.47;;;16.90;99.90;;;;;;5024586;28;20037;-76
2022/06/09 08:24:41;;;;;;;1.52;0.47;;;17.00;99.90;;;;;;5025307;28;20567;-74
2022/06/09 08:27:07;;;;;;;1.15;0.35;;;17.10;99.90;;;;;;5020333;28;20384;-74
2022/06/09 08:29:33;;;;;;;3.38;0.55;;;17.30;99.90;;;;;;5020242;28;20037;-74
2022/06/09 08:31:59;;;;;;;1.30;0.50;;;17.50;99.90;;;;;;5024534;28;20169;-74
2022/06/09 08:34:25;;;;;;;1.20;0.45;;;17.70;99.90;;;;;;5025215;28;20132;-74
2022/06/09 08:36:52;;;;;;;3.72;0.80;;;17.80;99.90;;;;;;5024860;28;20044;-73
2022/06/09 08:39:19;;;;;;;2.00;0.47;;;17.90;99.90;;;;;;5023600;28;20041;-73
2022/06/09 08:42:17;;;;;;;4.15;1.38;;;17.80;99.90;;;;;;5024257;28;20071;-73
2022/06/09 08:44:54;;;;;;;1.33;0.38;;;17.90;99.90;;;;;;5023758;28;20036;-74
2022/06/09 08:47:41;;;;;;;3.05;0.63;;;17.90;99.90;;;;;;5024565;28;20080;-74
2022/06/09 08:50:16;;;;;;;1.02;0.22;;;17.90;99.90;;;;;;5024870;28;20048;-74
2022/06/09 08:53:09;;;;;;;3.00;0.40;;;18.00;99.90;;;;;;5024865;28;20029;-73
2022/06/09 08:55:38;;;;;;;1.77;0.40;;;17.90;99.90;;;;;;5022699;28;20391;-74
2022/06/09 08:58:11;;;;;;;2.70;0.50;;;17.80;99.90;;;;;;5020491;28;20037;-74
2022/06/09 09:00:45;;;;;;;2.72;0.40;;;17.90;99.90;;;;;;5023908;28;20048;-74
2022/06/09 09:03:35;;;;;;;2.73;0.70;;;17.90;99.90;;;;;;5021195;28;20033;-73
2022/06/09 09:06:36;;;;;;;2.00;0.73;;;18.00;99.90;;;;;;5024369;28;20294;-73
2022/06/09 09:09:13;;;;;;;2.35;0.80;;;18.00;99.90;;;;;;5004345;28;20166;-74
2022/06/09 09:12:01;;;;;;;3.00;0.70;;;17.90;99.90;;;;;;5023793;28;20119;-74
2022/06/09 09:15:10;;;;;;;2.35;0.52;;;17.80;99.90;;;;;;5024489;28;20044;-74
2022/06/09 09:17:36;;;;;;;2.17;0.63;;;17.70;99.90;;;;;;4990339;28;20052;-74
2022/06/09 09:20:13;;;;;;;3.10;0.65;;;17.90;99.90;;;;;;5015448;28;20041;-73
2022/06/09 09:22:39;;;;;;;2.38;0.80;;;18.00;99.90;;;;;;5024956;28;20033;-74
2022/06/09 09:25:20;;;;;;;3.25;0.80;;;18.20;99.90;;;;;;5023779;28;20048;-73
2022/06/09 09:28:01;;;;;;;1.85;0.70;;;18.20;99.90;;;;;;5013211;28;20072;-74
2022/06/09 09:30:40;;;;;;;1.80;0.75;;;18.30;99.90;;;;;;5021680;28;20057;-74
2022/06/09 09:33:15;;;;;;;1.65;0.57;;;18.20;99.90;;;;;;5024022;28;20029;-73
2022/06/09 09:35:43;;;;;;;3.33;0.80;;;18.30;99.90;;;;;;5023010;28;20069;-74
2022/06/09 09:38:14;;;;;;;3.40;1.00;;;18.40;99.90;;;;;;5021436;28;20408;-74
2022/06/09 09:40:56;;;;;;;8.25;1.00;;;18.30;99.90;;;;;;5023413;28;20130;-74
2022/06/09 09:43:25;;;;;;;2.53;1.05;;;18.50;99.90;;;;;;5022860;28;20033;-74
2022/06/09 09:45:56;;;;;;;1.90;0.77;;;18.70;99.90;;;;;;5024143;28;20041;-74
2022/06/09 09:48:21;;;;;;;2.72;0.93;;;18.70;99.90;;;;;;5023989;28;20128;-74
2022/06/09 09:51:01;;;;;;;3.30;0.95;;;18.70;99.90;;;;;;5023817;28;20603;-74
2022/06/09 09:53:38;;;;;;;1.17;0.50;;;18.80;99.90;;;;;;5018081;28;20489;-74
2022/06/09 09:56:15;;;;;;;5.72;0.70;;;19.00;99.90;;;;;;5024783;28;20029;-74
2022/06/09 09:58:47;;;;;;;2.53;0.80;;;19.10;99.90;;;;;;5017482;28;20040;-73
2022/06/09 10:01:22;;;;;;;1.20;0.50;;;19.10;99.90;;;;;;5023261;28;20029;-74
2022/06/09 10:09:44;;;;;;;1.98;0.50;;;19.40;99.90;;;;;;5024519;28;20614;-74
2022/06/09 10:12:24;;;;;;;3.67;0.50;;;19.50;99.50;;;;;;5020449;28;20033;-74
2022/06/09 10:15:12;;;;;;;5.28;0.75;;;19.80;99.90;;;;;;5022792;28;20029;-74
2022/06/09 10:17:39;;;;;;;2.05;0.60;;;19.90;99.90;;;;;;5025332;28;20372;-74
2022/06/09 10:20:05;;;;;;;2.92;0.60;;;20.00;99.90;;;;;;5026541;28;20404;-74
2022/06/09 10:22:35;;;;;;;1.77;0.73;;;20.00;99.80;;;;;;5026890;28;20082;-74
2022/06/09 10:25:24;;;;;;;1.33;0.40;;;20.10;99.40;;;;;;5025918;28;20032;-73
2022/06/09 10:27:57;;;;;;;2.13;0.68;;;20.30;99.70;;;;;;5022427;28;20069;-74
2022/06/09 10:30:41;;;;;;;2.30;0.60;;;20.40;99.50;;;;;;5026114;28;20128;-74
2022/06/09 10:33:18;;;;;;;1.70;0.60;;;20.50;99.00;;;;;;5026505;28;20143;-73
2022/06/09 10:35:49;;;;;;;1.10;0.40;;;20.30;97.30;;;;;;5030607;28;20312;-74
2022/06/09 10:38:36;;;;;;;1.60;0.40;;;20.50;98.10;;;;;;5029218;28;20090;-74
2022/06/09 10:41:09;;;;;;;1.48;0.45;;;21.00;97.90;;;;;;5026153;28;20100;-74
2022/06/09 10:43:40;;;;;;;1.35;0.38;;;20.90;97.60;;;;;;5025606;28;20038;-74
2022/06/09 10:46:12;;;;;;;3.70;0.77;;;21.10;97.10;;;;;;5024055;28;20029;-74
2022/06/09 10:55:37;;;;;;;2.53;0.57;;;22.20;98.10;;;;;;4984243;28;20041;-74
2022/06/09 10:58:27;;;;;;;1.83;0.68;;;22.00;97.30;;;;;;5026564;28;20065;-74
2022/06/09 11:00:53;;;;;;;2.50;0.40;;;21.90;96.40;;;;;;5023577;28;20039;-74
2022/06/09 11:03:31;;;;;;;1.45;0.50;;;22.00;95.50;;;;;;5025688;28;20038;-74
2022/06/09 11:06:09;;;;;;;2.35;0.70;;;22.10;96.40;;;;;;5023329;28;20025;-74
2022/06/09 11:09:12;;;;;;;3.15;0.50;;;22.40;96.70;;;;;;5028839;28;20102;-74
2022/06/09 11:11:59;;;;;;;0.52;0.40;;;22.50;94.20;;;;;;5026583;28;20029;-74
2022/06/09 11:14:34;;;;;;;1.23;0.40;;;22.70;95.40;;;;;;5028969;28;20119;-74
2022/06/09 11:17:05;;;;;;;1.17;0.40;;;22.80;96.60;;;;;;5027509;28;20484;-74
2022/06/09 11:19:40;;;;;;;3.50;0.60;;;22.60;94.90;;;;;;5025654;28;20033;-74
2022/06/09 11:22:29;;;;;;;3.30;0.60;;;22.70;95.60;;;;;;5029171;28;20045;-74
2022/06/09 11:25:25;;;;;;;2.67;0.63;;;23.10;96.60;;;;;;5023705;28;20029;-74
2022/06/09 11:28:06;;;;;;;1.40;0.50;;;23.00;95.60;;;;;;5024676;28;20055;-75
2022/06/09 11:30:50;;;;;;;4.00;0.68;;;23.20;95.60;;;;;;5029542;28;20388;-74
2022/06/09 11:33:40;;;;;;;3.10;0.70;;;23.20;95.10;;;;;;5029276;28;20495;-73
2022/06/09 11:36:21;;;;;;;1.13;0.50;;;23.10;94.60;;;;;;5028337;28;20029;-74
2022/06/09 11:39:14;;;;;;;2.45;0.95;;;23.30;95.10;;;;;;5029245;28;20105;-74
2022/06/09 11:41:53;;;;;;;2.45;0.60;;;23.20;95.00;;;;;;5028844;28;20425;-74
2022/06/09 11:44:29;;;;;;;2.10;0.50;;;22.90;94.80;;;;;;5023151;28;20062;-74
2022/06/09 11:46:59;;;;;;;1.27;0.50;;;22.80;95.40;;;;;;5027133;28;20053;-74
2022/06/09 11:49:39;;;;;;;4.07;0.50;;;23.20;95.20;;;;;;5029328;28;20426;-74
2022/06/09 11:52:16;;;;;;;1.58;0.40;;;23.20;94.90;;;;;;5023113;28;20033;-74
2022/06/09 11:55:01;;;;;;;0.90;0.50;;;22.80;94.50;;;;;;5028781;28;20127;-74
2022/06/09 11:57:32;;;;;;;2.33;0.95;;;22.50;95.60;;;;;;5029129;28;20530;-74
2022/06/09 12:00:00;;;;;;;0.88;0.40;;;21.90;95.30;;;;;;5025292;28;20029;-75
2022/06/09 12:02:39;;;;;;;1.25;0.45;;;22.10;95.50;;;;;;5028697;28;20033;-73
2022/06/09 12:05:07;;;;;;;2.20;0.57;;;22.00;95.50;;;;;;5028363;28;20044;-74
2022/06/09 12:07:39;;;;;;;13.90;0.70;;;22.10;96.40;;;;;;5028340;28;20423;-74
2022/06/09 12:10:24;;;;;;;1.45;0.50;;;22.40;95.90;;;;;;5019474;28;20099;-76
2022/06/09 12:13:11;;;;;;;1.92;0.45;;;22.50;95.50;;;;;;5024688;28;20403;-75
2022/06/09 12:15:51;;;;;;;1.33;0.70;;;22.50;94.90;;;;;;5024673;28;20147;-75
2022/06/09 12:18:17;;;;;;;0.65;0.22;;;22.80;95.90;;;;;;5024757;28;20048;-74
2022/06/09 12:20:49;;;;;;;3.50;0.52;;;22.60;95.40;;;;;;5024623;28;20431;-75
2022/06/09 12:23:37;;;;;;;2.63;0.35;;;22.80;95.60;;;;;;5024252;28;20057;-75
2022/06/09 12:26:09;;;;;;;4.65;0.85;;;22.70;94.90;;;;;;5013377;28;20064;-75
2022/06/09 12:28:44;;;;;;;1.05;0.30;;;22.90;95.60;;;;;;5024589;28;20045;-75
2022/06/09 12:31:16;;;;;;;4.15;0.50;;;23.00;94.60;;;;;;5025082;28;20102;-75
2022/06/09 12:33:51;;;;;;;3.45;0.70;;;23.00;94.70;;;;;;5023496;28;20072;-75
2022/06/09 12:36:38;;;;;;;1.08;0.43;;;23.00;94.00;;;;;;5025074;28;20025;-75
2022/06/09 12:39:28;;;;;;;1.63;0.73;;;22.90;94.40;;;;;;5024799;28;20040;-75
2022/06/09 12:42:00;;;;;;;1.85;0.40;;;22.60;94.60;;;;;;5024156;28;20099;-75
2022/06/09 12:44:40;;;;;;;1.30;0.57;;;22.80;94.50;;;;;;5020284;28;20037;-74
2022/06/09 12:47:23;;;;;;;1.63;0.47;;;23.00;94.60;;;;;;5024169;28;20487;-75
2022/06/09 12:49:54;;;;;;;3.05;0.75;;;23.10;93.20;;;;;;5024800;28;20446;-74
2022/06/09 12:52:19;;;;;;;2.63;0.40;;;23.00;92.90;;;;;;5024476;28;20064;-74
2022/06/09 12:54:46;;;;;;;1.10;0.32;;;23.30;93.30;;;;;;5022688;28;20423;-75
2022/06/09 12:57:22;;;;;;;1.30;0.35;;;23.70;93.80;;;;;;5024407;28;20021;-75
2022/06/09 13:00:05;;;;;;;2.50;0.90;;;23.00;92.80;;;;;;5022863;28;20128;-74
2022/06/09 13:02:35;;;;;;;1.48;0.40;;;23.20;92.40;;;;;;5014843;28;20029;-75
2022/06/09 13:05:18;;;;;;;2.05;0.40;;;24.00;92.60;;;;;;5023561;28;20041;-75
2022/06/09 13:07:56;;;;;;;0.63;0.13;;;24.30;91.80;;;;;;5024052;28;20045;-75
2022/06/09 13:10:26;;;;;;;1.17;0.30;;;24.20;91.00;;;;;;5024158;28;20626;-75
2022/06/09 13:13:02;;;;;;;0.20;0.08;;;24.70;92.00;;;;;;5024652;28;20064;-74
2022/06/09 13:15:56;;;;;;;0.80;0.30;;;24.40;89.90;;;;;;5020515;28;20045;-75
2022/06/09 13:18:31;;;;;;;2.55;0.30;;;24.40;90.40;;;;;;5014614;28;20033;-74
2022/06/09 13:21:13;;;;;;;3.20;0.40;;;24.90;91.00;;;;;;5023803;28;20036;-74
2022/06/09 13:23:41;;;;;;;1.08;0.20;;;25.20;90.00;;;;;;5014702;28;20041;-75
2022/06/09 13:26:12;;;;;;;2.03;0.40;;;25.10;87.20;;;;;;5022868;28;20037;-75
2022/06/09 13:28:44;;;;;;;0.85;0.17;;;25.20;88.00;;;;;;5024116;28;20391;-75
2022/06/09 13:31:45;;;;;;;1.13;0.20;;;25.70;91.00;;;;;;5025641;28;20050;-74